sensor_id;sensor_type;location;lat;lon;timestamp;P1;durP1;ratioP1;P2;durP2;ratioP2
32250;SDS011;41295;48.518;9.206;2022-11-14T00:01:33;20.15;;;12.77;;
32250;SDS011;41295;48.518;9.206;2022-11-14T00:03:36;25.02;;;13.23;;
32250;SDS011;41295;48.518;9.206;2022-11-14T00:05:41;25.55;;;13.75;;
32250;SDS011;41295;48.518;9.206;2022-11-14T00:07:44;28.65;;;14.77;;
32250;SDS011;41295;48.518;9.206;2022-11-14T00:09:47;27.83;;;16.35;;
32250;SDS011;41295;48.518;9.206;2022-11-14T00:11:50;27.17;;;15.32;;
32250;SDS011;41295;48.518;9.206;2022-11-14T00:13:52;32.00;;;15.90;;
32250;SDS011;41295;48.518;9.206;2022-11-14T00:15:55;25.02;;;14.45;;
32250;SDS011;41295;48.518;9.206;2022-11-14T00:18:00;29.05;;;15.45;;
32250;SDS011;41295;48.518;9.206;2022-11-14T00:20:04;32.30;;;15.27;;
32250;SDS011;41295;48.518;9.206;2022-11-14T00:22:10;26.38;;;15.32;;
32250;SDS011;41295;48.518;9.206;2022-11-14T00:24:12;23.60;;;13.77;;
32250;SDS011;41295;48.518;9.206;2022-11-14T00:26:15;26.17;;;14.38;;
32250;SDS011;41295;48.518;9.206;2022-11-14T00:28:17;23.40;;;14.25;;
32250;SDS011;41295;48.518;9.206;2022-11-14T00:30:20;23.92;;;13.45;;
32250;SDS011;41295;48.518;9.206;2022-11-14T00:32:23;24.13;;;13.60;;
32250;SDS011;41295;48.518;9.206;2022-11-14T00:34:25;24.58;;;14.05;;
32250;SDS011;41295;48.518;9.206;2022-11-14T00:36:28;24.58;;;14.35;;
32250;SDS011;41295;48.518;9.206;2022-11-14T00:38:32;23.73;;;14.07;;
32250;SDS011;41295;48.518;9.206;2022-11-14T00:40:34;22.92;;;13.95;;
32250;SDS011;41295;48.518;9.206;2022-11-14T00:42:37;24.67;;;13.70;;
32250;SDS011;41295;48.518;9.206;2022-11-14T00:44:40;22.77;;;13.07;;
32250;SDS011;41295;48.518;9.206;2022-11-14T00:46:42;24.75;;;13.85;;
32250;SDS011;41295;48.518;9.206;2022-11-14T00:48:45;26.45;;;14.88;;
32250;SDS011;41295;48.518;9.206;2022-11-14T00:50:47;26.95;;;16.65;;
32250;SDS011;41295;48.518;9.206;2022-11-14T00:52:50;29.13;;;15.85;;
32250;SDS011;41295;48.518;9.206;2022-11-14T00:54:54;25.35;;;15.20;;
32250;SDS011;41295;48.518;9.206;2022-11-14T00:56:57;28.05;;;16.42;;
32250;SDS011;41295;48.518;9.206;2022-11-14T00:59:00;27.38;;;16.23;;
32250;SDS011;41295;48.518;9.206;2022-11-14T01:01:02;24.00;;;15.05;;
32250;SDS011;41295;48.518;9.206;2022-11-14T01:03:05;26.63;;;15.65;;
32250;SDS011;41295;48.518;9.206;2022-11-14T01:05:08;24.77;;;14.55;;
32250;SDS011;41295;48.518;9.206;2022-11-14T01:07:11;28.48;;;16.27;;
32250;SDS011;41295;48.518;9.206;2022-11-14T01:09:13;27.02;;;15.90;;
32250;SDS011;41295;48.518;9.206;2022-11-14T01:11:18;23.27;;;15.38;;
32250;SDS011;41295;48.518;9.206;2022-11-14T01:13:23;25.60;;;14.82;;
32250;SDS011;41295;48.518;9.206;2022-11-14T01:15:26;25.27;;;15.07;;
32250;SDS011;41295;48.518;9.206;2022-11-14T01:17:28;26.33;;;15.20;;
32250;SDS011;41295;48.518;9.206;2022-11-14T01:19:31;27.08;;;15.43;;
32250;SDS011;41295;48.518;9.206;2022-11-14T01:21:34;24.52;;;14.95;;
32250;SDS011;41295;48.518;9.206;2022-11-14T01:23:36;27.15;;;14.90;;
32250;SDS011;41295;48.518;9.206;2022-11-14T01:25:39;26.55;;;14.70;;
32250;SDS011;41295;48.518;9.206;2022-11-14T01:27:45;23.33;;;13.85;;
32250;SDS011;41295;48.518;9.206;2022-11-14T01:29:47;27.58;;;15.23;;
32250;SDS011;41295;48.518;9.206;2022-11-14T01:31:50;24.33;;;14.60;;
32250;SDS011;41295;48.518;9.206;2022-11-14T01:33:53;25.45;;;15.43;;
32250;SDS011;41295;48.518;9.206;2022-11-14T01:35:58;23.02;;;14.25;;
32250;SDS011;41295;48.518;9.206;2022-11-14T01:38:00;21.35;;;14.10;;
32250;SDS011;41295;48.518;9.206;2022-11-14T01:40:04;23.45;;;14.20;;
32250;SDS011;41295;48.518;9.206;2022-11-14T01:42:07;23.13;;;14.57;;
32250;SDS011;41295;48.518;9.206;2022-11-14T01:44:15;23.25;;;13.48;;
32250;SDS011;41295;48.518;9.206;2022-11-14T01:46:20;22.20;;;14.40;;
32250;SDS011;41295;48.518;9.206;2022-11-14T01:48:26;23.42;;;14.05;;
32250;SDS011;41295;48.518;9.206;2022-11-14T01:50:32;25.00;;;13.40;;
32250;SDS011;41295;48.518;9.206;2022-11-14T01:52:36;20.27;;;13.15;;
32250;SDS011;41295;48.518;9.206;2022-11-14T01:54:42;23.38;;;14.18;;
32250;SDS011;41295;48.518;9.206;2022-11-14T01:56:48;21.63;;;13.43;;
32250;SDS011;41295;48.518;9.206;2022-11-14T01:58:55;22.23;;;12.30;;
32250;SDS011;41295;48.518;9.206;2022-11-14T02:01:03;27.08;;;13.95;;
32250;SDS011;41295;48.518;9.206;2022-11-14T02:03:06;22.27;;;13.35;;
32250;SDS011;41295;48.518;9.206;2022-11-14T02:05:09;23.58;;;14.15;;
32250;SDS011;41295;48.518;9.206;2022-11-14T02:07:16;24.20;;;14.02;;
32250;SDS011;41295;48.518;9.206;2022-11-14T02:09:20;23.50;;;13.88;;
32250;SDS011;41295;48.518;9.206;2022-11-14T02:11:22;22.48;;;13.80;;
32250;SDS011;41295;48.518;9.206;2022-11-14T02:13:25;22.20;;;14.30;;
32250;SDS011;41295;48.518;9.206;2022-11-14T02:15:28;21.65;;;12.60;;
32250;SDS011;41295;48.518;9.206;2022-11-14T02:17:32;23.35;;;14.48;;
32250;SDS011;41295;48.518;9.206;2022-11-14T02:19:41;22.52;;;14.52;;
32250;SDS011;41295;48.518;9.206;2022-11-14T02:21:47;23.17;;;14.07;;
32250;SDS011;41295;48.518;9.206;2022-11-14T02:23:49;22.75;;;13.85;;
32250;SDS011;41295;48.518;9.206;2022-11-14T02:25:52;24.60;;;14.77;;
32250;SDS011;41295;48.518;9.206;2022-11-14T02:27:55;20.48;;;12.93;;
32250;SDS011;41295;48.518;9.206;2022-11-14T02:30:02;23.75;;;14.50;;
32250;SDS011;41295;48.518;9.206;2022-11-14T02:32:06;23.88;;;13.77;;
32250;SDS011;41295;48.518;9.206;2022-11-14T02:34:11;22.85;;;13.65;;
32250;SDS011;41295;48.518;9.206;2022-11-14T02:36:16;22.40;;;14.10;;
32250;SDS011;41295;48.518;9.206;2022-11-14T02:38:20;23.88;;;14.10;;
32250;SDS011;41295;48.518;9.206;2022-11-14T02:40:23;23.23;;;13.93;;
32250;SDS011;41295;48.518;9.206;2022-11-14T02:42:26;22.70;;;13.60;;
32250;SDS011;41295;48.518;9.206;2022-11-14T02:44:28;23.88;;;14.13;;
32250;SDS011;41295;48.518;9.206;2022-11-14T02:46:36;22.88;;;14.13;;
32250;SDS011;41295;48.518;9.206;2022-11-14T02:48:38;22.85;;;14.40;;
32250;SDS011;41295;48.518;9.206;2022-11-14T02:50:41;25.05;;;14.27;;
32250;SDS011;41295;48.518;9.206;2022-11-14T02:52:49;24.67;;;14.40;;
32250;SDS011;41295;48.518;9.206;2022-11-14T02:54:53;24.10;;;13.88;;
32250;SDS011;41295;48.518;9.206;2022-11-14T02:56:56;24.15;;;14.43;;
32250;SDS011;41295;48.518;9.206;2022-11-14T02:58:58;22.42;;;14.55;;
32250;SDS011;41295;48.518;9.206;2022-11-14T03:01:01;24.52;;;13.40;;
32250;SDS011;41295;48.518;9.206;2022-11-14T03:03:21;20.70;;;13.57;;
32250;SDS011;41295;48.518;9.206;2022-11-14T03:05:23;21.92;;;13.45;;
32250;SDS011;41295;48.518;9.206;2022-11-14T03:07:26;24.23;;;14.05;;
32250;SDS011;41295;48.518;9.206;2022-11-14T03:09:29;24.90;;;13.77;;
32250;SDS011;41295;48.518;9.206;2022-11-14T03:11:33;24.42;;;13.65;;
32250;SDS011;41295;48.518;9.206;2022-11-14T03:13:35;26.98;;;14.32;;
32250;SDS011;41295;48.518;9.206;2022-11-14T03:15:38;23.58;;;13.38;;
32250;SDS011;41295;48.518;9.206;2022-11-14T03:17:41;22.20;;;13.77;;
32250;SDS011;41295;48.518;9.206;2022-11-14T03:19:43;22.40;;;13.18;;
32250;SDS011;41295;48.518;9.206;2022-11-14T03:21:46;22.40;;;13.50;;
32250;SDS011;41295;48.518;9.206;2022-11-14T03:23:48;22.17;;;14.30;;
32250;SDS011;41295;48.518;9.206;2022-11-14T03:25:51;23.98;;;13.90;;
32250;SDS011;41295;48.518;9.206;2022-11-14T03:27:55;21.00;;;13.23;;
32250;SDS011;41295;48.518;9.206;2022-11-14T03:29:58;23.13;;;13.05;;
32250;SDS011;41295;48.518;9.206;2022-11-14T03:32:00;22.25;;;13.68;;
32250;SDS011;41295;48.518;9.206;2022-11-14T03:34:03;24.75;;;13.35;;
32250;SDS011;41295;48.518;9.206;2022-11-14T03:36:06;20.92;;;13.35;;
32250;SDS011;41295;48.518;9.206;2022-11-14T03:38:09;23.65;;;13.18;;
32250;SDS011;41295;48.518;9.206;2022-11-14T03:40:12;24.85;;;13.43;;
32250;SDS011;41295;48.518;9.206;2022-11-14T03:42:15;21.70;;;13.48;;
32250;SDS011;41295;48.518;9.206;2022-11-14T03:44:19;20.63;;;13.48;;
32250;SDS011;41295;48.518;9.206;2022-11-14T03:46:21;22.30;;;13.60;;
32250;SDS011;41295;48.518;9.206;2022-11-14T03:48:24;20.05;;;13.07;;
32250;SDS011;41295;48.518;9.206;2022-11-14T03:50:31;21.65;;;13.60;;
32250;SDS011;41295;48.518;9.206;2022-11-14T03:52:33;20.55;;;12.98;;
32250;SDS011;41295;48.518;9.206;2022-11-14T03:54:36;20.60;;;12.40;;
32250;SDS011;41295;48.518;9.206;2022-11-14T03:56:39;22.65;;;13.48;;
32250;SDS011;41295;48.518;9.206;2022-11-14T03:58:42;20.38;;;12.55;;
32250;SDS011;41295;48.518;9.206;2022-11-14T04:00:45;20.23;;;13.18;;
32250;SDS011;41295;48.518;9.206;2022-11-14T04:02:48;21.50;;;13.23;;
32250;SDS011;41295;48.518;9.206;2022-11-14T04:04:51;21.40;;;13.02;;
32250;SDS011;41295;48.518;9.206;2022-11-14T04:06:53;21.70;;;13.23;;
32250;SDS011;41295;48.518;9.206;2022-11-14T04:08:56;19.58;;;12.15;;
32250;SDS011;41295;48.518;9.206;2022-11-14T04:11:00;21.77;;;13.50;;
32250;SDS011;41295;48.518;9.206;2022-11-14T04:13:04;22.75;;;13.05;;
32250;SDS011;41295;48.518;9.206;2022-11-14T04:15:07;22.60;;;13.20;;
32250;SDS011;41295;48.518;9.206;2022-11-14T04:17:11;23.65;;;12.48;;
32250;SDS011;41295;48.518;9.206;2022-11-14T04:19:14;21.75;;;13.52;;
32250;SDS011;41295;48.518;9.206;2022-11-14T04:21:17;21.58;;;12.93;;
32250;SDS011;41295;48.518;9.206;2022-11-14T04:23:19;21.00;;;12.75;;
32250;SDS011;41295;48.518;9.206;2022-11-14T04:25:22;20.45;;;12.85;;
32250;SDS011;41295;48.518;9.206;2022-11-14T04:27:24;21.92;;;12.77;;
32250;SDS011;41295;48.518;9.206;2022-11-14T04:29:27;20.98;;;13.60;;
32250;SDS011;41295;48.518;9.206;2022-11-14T04:31:30;21.52;;;12.68;;
32250;SDS011;41295;48.518;9.206;2022-11-14T04:33:34;18.63;;;11.27;;
32250;SDS011;41295;48.518;9.206;2022-11-14T04:35:36;17.00;;;10.85;;
32250;SDS011;41295;48.518;9.206;2022-11-14T04:37:39;23.67;;;12.93;;
32250;SDS011;41295;48.518;9.206;2022-11-14T04:39:41;22.02;;;12.38;;
32250;SDS011;41295;48.518;9.206;2022-11-14T04:41:44;20.08;;;12.25;;
32250;SDS011;41295;48.518;9.206;2022-11-14T04:43:47;18.00;;;11.32;;
32250;SDS011;41295;48.518;9.206;2022-11-14T04:45:51;18.80;;;12.23;;
32250;SDS011;41295;48.518;9.206;2022-11-14T04:47:54;20.67;;;12.15;;
32250;SDS011;41295;48.518;9.206;2022-11-14T04:49:57;19.17;;;12.15;;
32250;SDS011;41295;48.518;9.206;2022-11-14T04:52:00;19.63;;;11.98;;
32250;SDS011;41295;48.518;9.206;2022-11-14T04:54:03;23.45;;;12.82;;
32250;SDS011;41295;48.518;9.206;2022-11-14T04:56:06;19.80;;;11.45;;
32250;SDS011;41295;48.518;9.206;2022-11-14T04:58:09;18.40;;;12.05;;
32250;SDS011;41295;48.518;9.206;2022-11-14T05:00:12;21.13;;;13.30;;
32250;SDS011;41295;48.518;9.206;2022-11-14T05:02:16;18.67;;;11.88;;
32250;SDS011;41295;48.518;9.206;2022-11-14T05:04:18;19.33;;;11.60;;
32250;SDS011;41295;48.518;9.206;2022-11-14T05:06:22;19.90;;;12.48;;
32250;SDS011;41295;48.518;9.206;2022-11-14T05:08:25;18.27;;;12.13;;
32250;SDS011;41295;48.518;9.206;2022-11-14T05:10:28;16.90;;;11.65;;
32250;SDS011;41295;48.518;9.206;2022-11-14T05:12:31;20.52;;;12.48;;
32250;SDS011;41295;48.518;9.206;2022-11-14T05:14:33;17.35;;;11.18;;
32250;SDS011;41295;48.518;9.206;2022-11-14T05:16:36;21.58;;;13.55;;
32250;SDS011;41295;48.518;9.206;2022-11-14T05:18:38;20.15;;;12.00;;
32250;SDS011;41295;48.518;9.206;2022-11-14T05:20:47;19.15;;;12.32;;
32250;SDS011;41295;48.518;9.206;2022-11-14T05:22:52;20.63;;;11.50;;
32250;SDS011;41295;48.518;9.206;2022-11-14T05:24:56;17.60;;;11.30;;
32250;SDS011;41295;48.518;9.206;2022-11-14T05:26:59;17.58;;;10.90;;
32250;SDS011;41295;48.518;9.206;2022-11-14T05:29:01;20.35;;;11.40;;
32250;SDS011;41295;48.518;9.206;2022-11-14T05:31:05;19.20;;;10.73;;
32250;SDS011;41295;48.518;9.206;2022-11-14T05:33:09;17.05;;;10.95;;
32250;SDS011;41295;48.518;9.206;2022-11-14T05:35:11;18.33;;;11.48;;
32250;SDS011;41295;48.518;9.206;2022-11-14T05:37:14;19.42;;;10.98;;
32250;SDS011;41295;48.518;9.206;2022-11-14T05:39:18;17.20;;;11.20;;
32250;SDS011;41295;48.518;9.206;2022-11-14T05:41:21;17.33;;;11.27;;
32250;SDS011;41295;48.518;9.206;2022-11-14T05:43:24;24.02;;;11.85;;
32250;SDS011;41295;48.518;9.206;2022-11-14T05:45:26;20.45;;;11.40;;
32250;SDS011;41295;48.518;9.206;2022-11-14T05:47:29;16.73;;;11.48;;
32250;SDS011;41295;48.518;9.206;2022-11-14T05:49:32;18.15;;;12.10;;
32250;SDS011;41295;48.518;9.206;2022-11-14T05:51:34;19.77;;;12.07;;
32250;SDS011;41295;48.518;9.206;2022-11-14T05:53:37;15.68;;;10.93;;
32250;SDS011;41295;48.518;9.206;2022-11-14T05:55:41;20.33;;;11.35;;
32250;SDS011;41295;48.518;9.206;2022-11-14T05:57:44;17.33;;;11.23;;
32250;SDS011;41295;48.518;9.206;2022-11-14T05:59:46;15.88;;;10.38;;
32250;SDS011;41295;48.518;9.206;2022-11-14T06:01:49;17.48;;;10.57;;
32250;SDS011;41295;48.518;9.206;2022-11-14T06:03:51;15.52;;;9.65;;
32250;SDS011;41295;48.518;9.206;2022-11-14T06:05:54;15.38;;;9.73;;
32250;SDS011;41295;48.518;9.206;2022-11-14T06:07:57;14.50;;;8.85;;
32250;SDS011;41295;48.518;9.206;2022-11-14T06:10:02;13.48;;;9.15;;
32250;SDS011;41295;48.518;9.206;2022-11-14T06:12:07;14.18;;;8.75;;
32250;SDS011;41295;48.518;9.206;2022-11-14T06:14:12;14.48;;;9.70;;
32250;SDS011;41295;48.518;9.206;2022-11-14T06:16:15;15.52;;;8.60;;
32250;SDS011;41295;48.518;9.206;2022-11-14T06:18:20;13.65;;;8.98;;
32250;SDS011;41295;48.518;9.206;2022-11-14T06:20:23;12.80;;;8.27;;
32250;SDS011;41295;48.518;9.206;2022-11-14T06:22:25;14.45;;;9.57;;
32250;SDS011;41295;48.518;9.206;2022-11-14T06:24:28;15.00;;;9.30;;
32250;SDS011;41295;48.518;9.206;2022-11-14T06:26:31;14.25;;;9.20;;
32250;SDS011;41295;48.518;9.206;2022-11-14T06:28:35;13.60;;;9.05;;
32250;SDS011;41295;48.518;9.206;2022-11-14T06:30:38;12.70;;;9.30;;
32250;SDS011;41295;48.518;9.206;2022-11-14T06:32:41;16.38;;;9.75;;
32250;SDS011;41295;48.518;9.206;2022-11-14T06:34:44;11.23;;;8.07;;
32250;SDS011;41295;48.518;9.206;2022-11-14T06:36:46;14.20;;;9.07;;
32250;SDS011;41295;48.518;9.206;2022-11-14T06:38:49;16.60;;;8.65;;
32250;SDS011;41295;48.518;9.206;2022-11-14T06:40:52;12.90;;;8.52;;
32250;SDS011;41295;48.518;9.206;2022-11-14T06:43:02;12.63;;;8.50;;
32250;SDS011;41295;48.518;9.206;2022-11-14T06:45:06;14.18;;;8.55;;
32250;SDS011;41295;48.518;9.206;2022-11-14T06:47:09;12.32;;;8.18;;
32250;SDS011;41295;48.518;9.206;2022-11-14T06:49:12;13.68;;;8.18;;
32250;SDS011;41295;48.518;9.206;2022-11-14T06:51:15;13.32;;;8.98;;
32250;SDS011;41295;48.518;9.206;2022-11-14T06:53:18;11.88;;;7.90;;
32250;SDS011;41295;48.518;9.206;2022-11-14T06:55:21;11.68;;;8.20;;
32250;SDS011;41295;48.518;9.206;2022-11-14T06:57:26;13.15;;;8.32;;
32250;SDS011;41295;48.518;9.206;2022-11-14T06:59:28;13.82;;;9.35;;
32250;SDS011;41295;48.518;9.206;2022-11-14T07:01:33;12.63;;;7.72;;
32250;SDS011;41295;48.518;9.206;2022-11-14T07:03:35;13.40;;;8.23;;
32250;SDS011;41295;48.518;9.206;2022-11-14T07:05:38;14.57;;;8.68;;
32250;SDS011;41295;48.518;9.206;2022-11-14T07:07:41;12.45;;;7.82;;
32250;SDS011;41295;48.518;9.206;2022-11-14T07:09:43;14.10;;;8.30;;
32250;SDS011;41295;48.518;9.206;2022-11-14T07:11:46;13.85;;;8.23;;
32250;SDS011;41295;48.518;9.206;2022-11-14T07:13:48;12.82;;;8.50;;
32250;SDS011;41295;48.518;9.206;2022-11-14T07:15:52;14.27;;;8.70;;
32250;SDS011;41295;48.518;9.206;2022-11-14T07:17:56;15.32;;;9.07;;
32250;SDS011;41295;48.518;9.206;2022-11-14T07:19:59;14.70;;;9.20;;
32250;SDS011;41295;48.518;9.206;2022-11-14T07:22:02;12.70;;;8.25;;
32250;SDS011;41295;48.518;9.206;2022-11-14T07:24:07;14.13;;;9.57;;
32250;SDS011;41295;48.518;9.206;2022-11-14T07:26:10;13.65;;;8.45;;
32250;SDS011;41295;48.518;9.206;2022-11-14T07:28:13;13.18;;;9.05;;
32250;SDS011;41295;48.518;9.206;2022-11-14T07:30:16;13.70;;;9.15;;
32250;SDS011;41295;48.518;9.206;2022-11-14T07:32:19;13.90;;;8.88;;
32250;SDS011;41295;48.518;9.206;2022-11-14T07:34:23;14.48;;;9.20;;
32250;SDS011;41295;48.518;9.206;2022-11-14T07:36:25;14.48;;;9.25;;
32250;SDS011;41295;48.518;9.206;2022-11-14T07:38:28;14.73;;;8.57;;
32250;SDS011;41295;48.518;9.206;2022-11-14T07:40:32;13.38;;;8.32;;
32250;SDS011;41295;48.518;9.206;2022-11-14T07:42:35;14.13;;;8.93;;
32250;SDS011;41295;48.518;9.206;2022-11-14T07:44:37;14.75;;;8.90;;
32250;SDS011;41295;48.518;9.206;2022-11-14T07:46:40;14.27;;;8.77;;
32250;SDS011;41295;48.518;9.206;2022-11-14T07:48:43;16.50;;;9.00;;
32250;SDS011;41295;48.518;9.206;2022-11-14T07:50:47;13.88;;;8.55;;
32250;SDS011;41295;48.518;9.206;2022-11-14T07:52:50;12.68;;;8.82;;
32250;SDS011;41295;48.518;9.206;2022-11-14T07:54:53;13.05;;;9.30;;
32250;SDS011;41295;48.518;9.206;2022-11-14T07:56:55;14.13;;;8.93;;
32250;SDS011;41295;48.518;9.206;2022-11-14T07:58:58;14.95;;;9.35;;
32250;SDS011;41295;48.518;9.206;2022-11-14T08:01:01;15.45;;;9.35;;
32250;SDS011;41295;48.518;9.206;2022-11-14T08:03:05;16.42;;;9.18;;
32250;SDS011;41295;48.518;9.206;2022-11-14T08:05:08;18.27;;;9.50;;
32250;SDS011;41295;48.518;9.206;2022-11-14T08:07:12;16.33;;;9.13;;
32250;SDS011;41295;48.518;9.206;2022-11-14T08:09:15;13.40;;;9.38;;
32250;SDS011;41295;48.518;9.206;2022-11-14T08:11:18;14.48;;;8.75;;
32250;SDS011;41295;48.518;9.206;2022-11-14T08:13:40;17.70;;;10.57;;
32250;SDS011;41295;48.518;9.206;2022-11-14T08:15:43;16.65;;;9.15;;
32250;SDS011;41295;48.518;9.206;2022-11-14T08:17:46;13.70;;;9.35;;
32250;SDS011;41295;48.518;9.206;2022-11-14T08:19:48;13.20;;;9.48;;
32250;SDS011;41295;48.518;9.206;2022-11-14T08:21:51;14.85;;;9.40;;
32250;SDS011;41295;48.518;9.206;2022-11-14T08:23:57;18.00;;;10.00;;
32250;SDS011;41295;48.518;9.206;2022-11-14T08:26:00;15.05;;;9.75;;
32250;SDS011;41295;48.518;9.206;2022-11-14T08:28:03;18.92;;;10.30;;
32250;SDS011;41295;48.518;9.206;2022-11-14T08:30:06;14.23;;;9.90;;
32250;SDS011;41295;48.518;9.206;2022-11-14T08:32:10;17.65;;;10.70;;
32250;SDS011;41295;48.518;9.206;2022-11-14T08:34:15;17.60;;;10.38;;
32250;SDS011;41295;48.518;9.206;2022-11-14T08:36:18;19.05;;;10.95;;
32250;SDS011;41295;48.518;9.206;2022-11-14T08:38:21;17.77;;;11.10;;
32250;SDS011;41295;48.518;9.206;2022-11-14T08:40:25;18.30;;;10.40;;
32250;SDS011;41295;48.518;9.206;2022-11-14T08:42:27;16.95;;;10.00;;
32250;SDS011;41295;48.518;9.206;2022-11-14T08:44:30;16.58;;;10.88;;
32250;SDS011;41295;48.518;9.206;2022-11-14T08:46:32;19.02;;;11.00;;
32250;SDS011;41295;48.518;9.206;2022-11-14T08:48:35;13.85;;;9.38;;
32250;SDS011;41295;48.518;9.206;2022-11-14T08:50:38;17.33;;;10.02;;
32250;SDS011;41295;48.518;9.206;2022-11-14T08:52:40;12.02;;;7.53;;
32250;SDS011;41295;48.518;9.206;2022-11-14T08:54:43;12.07;;;7.13;;
32250;SDS011;41295;48.518;9.206;2022-11-14T08:56:47;15.98;;;7.95;;
32250;SDS011;41295;48.518;9.206;2022-11-14T08:58:49;5.88;;;3.08;;
32250;SDS011;41295;48.518;9.206;2022-11-14T09:00:52;6.80;;;3.72;;
32250;SDS011;41295;48.518;9.206;2022-11-14T09:02:55;6.63;;;3.60;;
32250;SDS011;41295;48.518;9.206;2022-11-14T09:04:57;5.70;;;2.90;;
32250;SDS011;41295;48.518;9.206;2022-11-14T09:07:00;6.75;;;3.38;;
32250;SDS011;41295;48.518;9.206;2022-11-14T09:09:03;6.28;;;2.80;;
32250;SDS011;41295;48.518;9.206;2022-11-14T09:11:06;5.82;;;2.70;;
32250;SDS011;41295;48.518;9.206;2022-11-14T09:13:11;7.63;;;3.05;;
32250;SDS011;41295;48.518;9.206;2022-11-14T09:15:14;5.43;;;2.92;;
32250;SDS011;41295;48.518;9.206;2022-11-14T09:17:17;12.75;;;7.40;;
32250;SDS011;41295;48.518;9.206;2022-11-14T09:19:19;14.50;;;8.43;;
32250;SDS011;41295;48.518;9.206;2022-11-14T09:21:22;13.45;;;8.45;;
32250;SDS011;41295;48.518;9.206;2022-11-14T09:23:25;13.65;;;8.10;;
32250;SDS011;41295;48.518;9.206;2022-11-14T09:25:30;14.48;;;9.68;;
32250;SDS011;41295;48.518;9.206;2022-11-14T09:27:33;14.10;;;8.98;;
32250;SDS011;41295;48.518;9.206;2022-11-14T09:29:37;14.93;;;9.38;;
32250;SDS011;41295;48.518;9.206;2022-11-14T09:31:40;14.27;;;9.63;;
32250;SDS011;41295;48.518;9.206;2022-11-14T09:33:42;14.85;;;8.23;;
32250;SDS011;41295;48.518;9.206;2022-11-14T09:35:45;5.95;;;3.75;;
32250;SDS011;41295;48.518;9.206;2022-11-14T09:37:48;6.75;;;3.80;;
32250;SDS011;41295;48.518;9.206;2022-11-14T09:39:50;4.88;;;2.63;;
32250;SDS011;41295;48.518;9.206;2022-11-14T09:41:57;3.10;;;1.98;;
32250;SDS011;41295;48.518;9.206;2022-11-14T09:46:53;2.28;;;1.85;;
32250;SDS011;41295;48.518;9.206;2022-11-14T09:48:59;5.88;;;2.10;;
32250;SDS011;41295;48.518;9.206;2022-11-14T09:51:04;4.03;;;1.80;;
32250;SDS011;41295;48.518;9.206;2022-11-14T09:53:09;5.93;;;1.92;;
32250;SDS011;41295;48.518;9.206;2022-11-14T09:55:17;2.63;;;1.80;;
32250;SDS011;41295;48.518;9.206;2022-11-14T09:57:22;3.22;;;1.60;;
32250;SDS011;41295;48.518;9.206;2022-11-14T09:59:27;2.03;;;1.50;;
32250;SDS011;41295;48.518;9.206;2022-11-14T10:01:37;2.65;;;1.77;;
32250;SDS011;41295;48.518;9.206;2022-11-14T10:03:50;2.80;;;1.95;;
32250;SDS011;41295;48.518;9.206;2022-11-14T10:06:03;2.13;;;1.50;;
32250;SDS011;41295;48.518;9.206;2022-11-14T10:08:25;2.72;;;1.55;;
32250;SDS011;41295;48.518;9.206;2022-11-14T10:10:50;3.38;;;1.70;;
32250;SDS011;41295;48.518;9.206;2022-11-14T10:12:57;2.10;;;1.45;;
32250;SDS011;41295;48.518;9.206;2022-11-14T10:15:16;2.33;;;1.65;;
32250;SDS011;41295;48.518;9.206;2022-11-14T10:17:42;3.13;;;1.70;;
32250;SDS011;41295;48.518;9.206;2022-11-14T10:19:55;3.15;;;1.60;;
32250;SDS011;41295;48.518;9.206;2022-11-14T10:22:10;2.38;;;1.40;;
32250;SDS011;41295;48.518;9.206;2022-11-14T10:24:23;2.40;;;1.60;;
32250;SDS011;41295;48.518;9.206;2022-11-14T10:26:37;3.33;;;1.80;;
32250;SDS011;41295;48.518;9.206;2022-11-14T10:28:52;1.75;;;1.60;;
32250;SDS011;41295;48.518;9.206;2022-11-14T10:31:07;5.25;;;1.80;;
32250;SDS011;41295;48.518;9.206;2022-11-14T10:33:24;4.53;;;2.00;;
32250;SDS011;41295;48.518;9.206;2022-11-14T10:35:36;2.63;;;1.83;;
32250;SDS011;41295;48.518;9.206;2022-11-14T10:37:45;2.75;;;1.80;;
32250;SDS011;41295;48.518;9.206;2022-11-14T10:39:59;2.10;;;1.55;;
32250;SDS011;41295;48.518;9.206;2022-11-14T10:42:23;3.58;;;2.08;;
32250;SDS011;41295;48.518;9.206;2022-11-14T10:44:32;1.95;;;1.70;;
32250;SDS011;41295;48.518;9.206;2022-11-14T10:46:40;2.92;;;1.80;;
32250;SDS011;41295;48.518;9.206;2022-11-14T10:48:50;2.58;;;1.70;;
32250;SDS011;41295;48.518;9.206;2022-11-14T10:51:00;2.88;;;1.70;;
32250;SDS011;41295;48.518;9.206;2022-11-14T10:53:13;2.00;;;1.67;;
32250;SDS011;41295;48.518;9.206;2022-11-14T10:55:19;2.35;;;1.80;;
32250;SDS011;41295;48.518;9.206;2022-11-14T10:57:44;1.58;;;1.40;;
32250;SDS011;41295;48.518;9.206;2022-11-14T10:59:47;2.63;;;1.63;;
32250;SDS011;41295;48.518;9.206;2022-11-14T11:01:54;2.90;;;1.67;;
32250;SDS011;41295;48.518;9.206;2022-11-14T11:04:00;1.85;;;1.48;;
32250;SDS011;41295;48.518;9.206;2022-11-14T11:06:23;3.50;;;1.58;;
32250;SDS011;41295;48.518;9.206;2022-11-14T11:08:27;2.40;;;1.73;;
32250;SDS011;41295;48.518;9.206;2022-11-14T11:10:48;4.45;;;1.88;;
32250;SDS011;41295;48.518;9.206;2022-11-14T11:13:09;3.92;;;1.83;;
32250;SDS011;41295;48.518;9.206;2022-11-14T11:15:16;1.45;;;1.35;;
32250;SDS011;41295;48.518;9.206;2022-11-14T11:17:21;4.35;;;1.80;;
32250;SDS011;41295;48.518;9.206;2022-11-14T11:19:34;3.20;;;1.73;;
32250;SDS011;41295;48.518;9.206;2022-11-14T11:21:45;3.50;;;2.05;;
32250;SDS011;41295;48.518;9.206;2022-11-14T11:23:50;3.83;;;2.08;;
32250;SDS011;41295;48.518;9.206;2022-11-14T11:25:57;5.07;;;1.80;;
32250;SDS011;41295;48.518;9.206;2022-11-14T11:28:05;2.20;;;1.80;;
32250;SDS011;41295;48.518;9.206;2022-11-14T11:30:16;5.00;;;2.42;;
32250;SDS011;41295;48.518;9.206;2022-11-14T11:32:22;3.67;;;2.20;;
32250;SDS011;41295;48.518;9.206;2022-11-14T11:34:27;3.10;;;1.90;;
32250;SDS011;41295;48.518;9.206;2022-11-14T11:36:34;4.38;;;2.40;;
32250;SDS011;41295;48.518;9.206;2022-11-14T11:38:41;3.15;;;2.30;;
32250;SDS011;41295;48.518;9.206;2022-11-14T11:40:45;3.28;;;2.08;;
32250;SDS011;41295;48.518;9.206;2022-11-14T11:42:54;5.53;;;2.75;;
32250;SDS011;41295;48.518;9.206;2022-11-14T11:45:20;5.00;;;2.30;;
32250;SDS011;41295;48.518;9.206;2022-11-14T11:47:23;3.17;;;1.92;;
32250;SDS011;41295;48.518;9.206;2022-11-14T11:49:32;3.60;;;2.17;;
32250;SDS011;41295;48.518;9.206;2022-11-14T11:51:43;6.18;;;2.25;;
32250;SDS011;41295;48.518;9.206;2022-11-14T11:53:49;3.95;;;2.15;;
32250;SDS011;41295;48.518;9.206;2022-11-14T11:56:00;4.55;;;2.80;;
32250;SDS011;41295;48.518;9.206;2022-11-14T11:58:09;4.53;;;2.50;;
32250;SDS011;41295;48.518;9.206;2022-11-14T12:00:17;4.85;;;2.38;;
32250;SDS011;41295;48.518;9.206;2022-11-14T12:02:24;4.40;;;2.70;;
32250;SDS011;41295;48.518;9.206;2022-11-14T12:04:28;5.00;;;2.40;;
32250;SDS011;41295;48.518;9.206;2022-11-14T12:06:32;3.78;;;2.58;;
32250;SDS011;41295;48.518;9.206;2022-11-14T12:08:45;8.15;;;3.08;;
32250;SDS011;41295;48.518;9.206;2022-11-14T12:10:56;4.72;;;2.90;;
32250;SDS011;41295;48.518;9.206;2022-11-14T12:13:11;3.58;;;2.45;;
32250;SDS011;41295;48.518;9.206;2022-11-14T12:15:33;4.60;;;2.35;;
32250;SDS011;41295;48.518;9.206;2022-11-14T12:17:52;4.60;;;2.60;;
32250;SDS011;41295;48.518;9.206;2022-11-14T12:20:19;3.30;;;2.42;;
32250;SDS011;41295;48.518;9.206;2022-11-14T12:22:35;5.18;;;3.00;;